Time;durP1;ratioP1;P1;durP2;ratioP2;P2;SDS_P1;SDS_P2;PMS_P1;PMS_P2;Temp;Humidity;BMP_temperature;BMP_pressure;BME280_temperature;BME280_humidity;BME280_pressure;Samples;Min_cycle;Max_cycle;Signal;HPM_P1;HPM_P2
2021/05/23 00:01:00;;;;;;;1.00;0.82;;;11.10;99.90;;;;;;4994939;28;20457;-74
2021/05/23 00:03:26;;;;;;;2.42;0.85;;;11.10;99.90;;;;;;4995966;28;20109;-75
2021/05/23 00:05:53;;;;;;;4.97;0.93;;;11.00;99.90;;;;;;4995380;28;20061;-73
2021/05/23 00:08:20;;;;;;;2.20;0.80;;;11.00;99.90;;;;;;4995578;28;20493;-74
2021/05/23 00:11:06;;;;;;;1.23;1.10;;;11.10;99.90;;;;;;4995023;28;20025;-75
2021/05/23 00:13:36;;;;;;;1.55;1.05;;;11.30;99.90;;;;;;4995740;28;20034;-75
2021/05/23 00:16:22;;;;;;;1.52;1.00;;;11.40;99.90;;;;;;4977845;28;20101;-73
2021/05/23 00:18:51;;;;;;;4.70;1.00;;;11.30;99.90;;;;;;4995516;28;20054;-74
2021/05/23 00:21:21;;;;;;;1.20;1.00;;;11.30;99.90;;;;;;4994904;28;20113;-75
2021/05/23 00:23:47;;;;;;;3.47;1.25;;;11.30;99.90;;;;;;4995396;28;20022;-75
2021/05/23 00:26:13;;;;;;;1.95;0.70;;;11.20;99.90;;;;;;4995464;28;20089;-73
2021/05/23 00:28:39;;;;;;;0.70;0.70;;;11.10;99.90;;;;;;4995290;28;20076;-74
2021/05/23 00:31:05;;;;;;;4.88;0.90;;;11.10;99.90;;;;;;4994526;28;20026;-75
2021/05/23 00:33:31;;;;;;;1.52;0.70;;;11.20;99.90;;;;;;4995254;28;20026;-76
2021/05/23 00:35:57;;;;;;;2.97;0.82;;;11.30;99.90;;;;;;4995151;28;20038;-75
2021/05/23 00:38:23;;;;;;;1.80;0.80;;;11.40;99.90;;;;;;4995422;28;20489;-75
2021/05/23 00:40:49;;;;;;;1.58;0.70;;;11.40;99.90;;;;;;4994840;28;20105;-76
2021/05/23 00:43:17;;;;;;;1.77;1.00;;;11.30;99.90;;;;;;4994661;28;20508;-76
2021/05/23 00:45:48;;;;;;;1.70;0.80;;;11.40;99.90;;;;;;4994739;28;20038;-76
2021/05/23 00:48:14;;;;;;;3.35;1.25;;;11.40;99.90;;;;;;4995274;28;20022;-75
2021/05/23 00:50:40;;;;;;;2.83;0.80;;;11.40;99.90;;;;;;4994729;28;20037;-76
2021/05/23 00:53:07;;;;;;;1.48;0.80;;;11.30;99.90;;;;;;4995951;28;20014;-75
2021/05/23 00:55:33;;;;;;;0.98;0.77;;;11.20;99.90;;;;;;4995655;28;20073;-75
2021/05/23 00:57:59;;;;;;;0.90;0.90;;;11.10;99.90;;;;;;4993005;28;20028;-75
2021/05/23 01:00:47;;;;;;;2.35;1.02;;;11.30;99.90;;;;;;4994031;28;20863;-76
2021/05/23 01:03:28;;;;;;;1.40;0.75;;;11.20;99.90;;;;;;4995207;28;20026;-74
2021/05/23 01:05:57;;;;;;;7.60;0.80;;;11.10;99.90;;;;;;4977447;28;20121;-75
2021/05/23 01:08:24;;;;;;;2.38;0.70;;;11.10;99.90;;;;;;4994515;28;20081;-76
2021/05/23 01:11:00;;;;;;;3.58;1.15;;;11.10;99.90;;;;;;4994031;28;20018;-74
2021/05/23 01:13:36;;;;;;;0.80;0.63;;;11.10;99.90;;;;;;4977418;28;20027;-74
2021/05/23 01:16:07;;;;;;;2.75;1.15;;;11.10;99.90;;;;;;4977274;28;20026;-75
2021/05/23 01:19:11;;;;;;;4.40;0.90;;;11.30;99.90;;;;;;4994651;28;20030;-74
2021/05/23 01:21:42;;;;;;;1.27;1.00;;;11.30;99.90;;;;;;4966528;28;20046;-72
2021/05/23 01:24:26;;;;;;;1.63;0.90;;;11.30;99.90;;;;;;4998761;28;20028;-73
2021/05/23 01:26:54;;;;;;;1.77;0.90;;;11.30;99.90;;;;;;5011919;28;20030;-74
2021/05/23 01:29:21;;;;;;;1.00;0.90;;;11.30;99.90;;;;;;4987370;28;20030;-73
2021/05/23 01:31:47;;;;;;;0.93;0.60;;;11.20;99.90;;;;;;4957642;28;20364;-73
2021/05/23 01:34:20;;;;;;;1.15;0.77;;;11.20;99.90;;;;;;4975362;28;20564;-73
2021/05/23 01:36:47;;;;;;;2.58;1.00;;;11.20;99.90;;;;;;4975644;28;20054;-73
2021/05/23 01:39:14;;;;;;;0.75;0.63;;;11.30;99.90;;;;;;4964202;28;20456;-74
2021/05/23 01:41:41;;;;;;;3.78;1.02;;;11.40;99.90;;;;;;4984333;28;20031;-75
2021/05/23 01:44:08;;;;;;;2.30;1.30;;;11.40;99.90;;;;;;4985427;28;20023;-74
2021/05/23 01:46:35;;;;;;;1.83;1.10;;;11.30;99.90;;;;;;4980140;28;20041;-75
2021/05/23 01:49:00;;;;;;;1.90;0.90;;;11.20;99.90;;;;;;4975318;28;20101;-75
2021/05/23 01:51:26;;;;;;;0.80;0.80;;;11.20;99.90;;;;;;4980136;28;20121;-74
2021/05/23 01:53:52;;;;;;;2.45;0.60;;;11.10;99.90;;;;;;4983677;28;20027;-74
2021/05/23 01:56:17;;;;;;;7.40;0.88;;;11.10;99.90;;;;;;4981903;28;20390;-74
2021/05/23 01:58:43;;;;;;;1.27;0.70;;;11.10;99.90;;;;;;4977638;28;20034;-73
2021/05/23 02:01:09;;;;;;;0.95;0.80;;;11.10;99.90;;;;;;4993471;28;20039;-73
2021/05/23 02:03:35;;;;;;;3.67;0.88;;;11.20;99.90;;;;;;4993873;28;20030;-74
2021/05/23 02:06:03;;;;;;;0.60;0.60;;;11.10;99.90;;;;;;4994089;28;20030;-74
2021/05/23 02:08:32;;;;;;;1.02;0.65;;;11.10;99.90;;;;;;4993083;28;20034;-73
2021/05/23 02:11:00;;;;;;;1.40;1.00;;;11.00;99.90;;;;;;4992383;28;20097;-72
2021/05/23 02:13:27;;;;;;;0.80;0.70;;;11.10;99.90;;;;;;4993416;28;20105;-73
2021/05/23 02:15:54;;;;;;;2.13;0.85;;;11.10;99.90;;;;;;4992978;28;20032;-73
2021/05/23 02:18:20;;;;;;;1.02;0.70;;;11.00;99.90;;;;;;4975643;28;20030;-73
2021/05/23 02:20:46;;;;;;;0.68;0.50;;;10.90;99.90;;;;;;4992430;28;20089;-73
2021/05/23 02:23:20;;;;;;;2.13;0.80;;;10.80;99.90;;;;;;4993415;28;20109;-73
2021/05/23 02:25:46;;;;;;;1.60;0.47;;;10.90;99.90;;;;;;4993040;28;20030;-73
2021/05/23 02:28:14;;;;;;;3.15;0.50;;;10.90;99.90;;;;;;4992948;28;20034;-74
2021/05/23 02:30:43;;;;;;;0.93;0.68;;;10.90;99.90;;;;;;4992298;28;20114;-73
2021/05/23 02:33:10;;;;;;;2.40;0.52;;;10.80;99.90;;;;;;4993108;28;20077;-73
2021/05/23 02:35:42;;;;;;;0.70;0.43;;;10.70;99.90;;;;;;4975598;28;20034;-74
2021/05/23 02:38:09;;;;;;;2.38;0.60;;;10.70;99.90;;;;;;4992905;28;20060;-75
2021/05/23 02:40:35;;;;;;;0.50;0.50;;;10.60;99.90;;;;;;4992354;28;20034;-74
2021/05/23 02:43:03;;;;;;;0.73;0.50;;;10.60;99.90;;;;;;4991610;28;20061;-73
2021/05/23 02:45:29;;;;;;;1.08;0.35;;;10.60;99.90;;;;;;4992641;28;20018;-74
2021/05/23 02:47:56;;;;;;;3.30;1.00;;;10.60;99.90;;;;;;4992864;28;20113;-75
2021/05/23 02:50:24;;;;;;;1.50;0.43;;;10.50;99.90;;;;;;4992284;28;20019;-74
2021/05/23 02:52:50;;;;;;;0.98;0.38;;;10.40;99.90;;;;;;4992353;28;20168;-74
2021/05/23 02:55:17;;;;;;;0.82;0.50;;;10.40;99.90;;;;;;4992479;28;20105;-73
2021/05/23 02:57:44;;;;;;;0.45;0.45;;;10.10;99.90;;;;;;4992702;28;20015;-74
2021/05/23 03:00:12;;;;;;;0.68;0.30;;;9.90;99.90;;;;;;4991492;28;20022;-74
2021/05/23 03:02:39;;;;;;;2.33;0.50;;;9.90;99.90;;;;;;4992610;28;20022;-73
2021/05/23 03:05:06;;;;;;;1.00;0.40;;;10.00;99.90;;;;;;4992793;28;20124;-74
2021/05/23 03:07:38;;;;;;;0.82;0.40;;;9.90;99.90;;;;;;4990628;28;20134;-74
2021/05/23 03:10:27;;;;;;;1.95;0.40;;;9.90;99.90;;;;;;4992004;28;20030;-74
2021/05/23 03:12:54;;;;;;;0.35;0.32;;;9.90;99.90;;;;;;4992508;28;20102;-73
2021/05/23 03:15:23;;;;;;;2.33;0.38;;;10.00;99.90;;;;;;4994216;28;20022;-72
2021/05/23 03:17:49;;;;;;;1.48;0.38;;;9.90;99.90;;;;;;4993405;28;20037;-73
2021/05/23 03:20:16;;;;;;;0.50;0.30;;;9.60;99.90;;;;;;4992404;28;20030;-74
2021/05/23 03:22:43;;;;;;;1.75;0.40;;;9.60;99.90;;;;;;4992816;28;20457;-73
2021/05/23 03:25:11;;;;;;;4.10;0.77;;;9.70;99.90;;;;;;4992369;28;20098;-74
2021/05/23 03:27:37;;;;;;;1.48;0.60;;;9.70;99.90;;;;;;4991027;28;20022;-75
2021/05/23 03:30:06;;;;;;;2.08;0.40;;;9.70;99.90;;;;;;4973845;28;20034;-75
2021/05/23 03:32:31;;;;;;;0.60;0.43;;;9.60;99.90;;;;;;4992238;28;20508;-74
2021/05/23 03:34:57;;;;;;;3.10;0.88;;;9.70;99.90;;;;;;4992360;28;20054;-76
2021/05/23 03:37:23;;;;;;;1.20;0.45;;;9.70;99.90;;;;;;4992239;28;20041;-75
2021/05/23 03:39:49;;;;;;;1.33;0.40;;;9.80;99.90;;;;;;4991624;28;20037;-75
2021/05/23 03:42:14;;;;;;;0.85;0.50;;;9.90;99.90;;;;;;4974930;28;20030;-75
2021/05/23 03:44:40;;;;;;;0.73;0.45;;;9.90;99.90;;;;;;4991755;28;20031;-75
2021/05/23 03:47:06;;;;;;;1.55;0.57;;;9.80;99.90;;;;;;4991903;28;20041;-73
2021/05/23 03:49:31;;;;;;;4.00;0.45;;;9.90;99.90;;;;;;4991485;28;20030;-74
2021/05/23 03:51:57;;;;;;;1.98;0.50;;;9.90;99.90;;;;;;4991964;28;20027;-74
2021/05/23 03:54:23;;;;;;;2.70;0.40;;;9.90;99.90;;;;;;4974821;28;20023;-74
2021/05/23 03:56:48;;;;;;;2.47;0.50;;;10.00;99.90;;;;;;4992256;28;20080;-74
2021/05/23 03:59:14;;;;;;;1.23;0.52;;;10.00;99.90;;;;;;4991466;28;20121;-74
2021/05/23 04:01:40;;;;;;;0.95;0.52;;;10.10;99.90;;;;;;4988987;28;20027;-74
2021/05/23 04:04:07;;;;;;;2.05;0.43;;;10.10;99.90;;;;;;4994442;28;20038;-75
2021/05/23 04:06:33;;;;;;;2.28;0.40;;;10.10;99.90;;;;;;4992624;28;20393;-75
2021/05/23 04:08:58;;;;;;;0.60;0.60;;;9.90;99.90;;;;;;4991697;28;20037;-74
2021/05/23 04:11:33;;;;;;;0.68;0.47;;;10.10;99.90;;;;;;4991457;28;20027;-75
2021/05/23 04:13:59;;;;;;;1.35;0.80;;;10.10;99.90;;;;;;4991988;28;20034;-74
2021/05/23 04:16:25;;;;;;;0.60;0.60;;;10.00;99.90;;;;;;4992440;28;20437;-74
2021/05/23 04:18:51;;;;;;;1.48;0.60;;;10.20;99.90;;;;;;4992614;28;20030;-74
2021/05/23 04:21:16;;;;;;;0.60;0.47;;;10.20;99.90;;;;;;4996670;28;20014;-73
2021/05/23 04:23:42;;;;;;;0.77;0.40;;;10.20;99.90;;;;;;5015813;28;20463;-74
2021/05/23 04:26:08;;;;;;;1.38;0.57;;;10.00;99.90;;;;;;5015475;28;20046;-72
2021/05/23 04:28:33;;;;;;;1.60;0.65;;;10.00;99.90;;;;;;4993168;28;20133;-76
2021/05/23 04:30:59;;;;;;;0.98;0.70;;;10.00;99.90;;;;;;4974264;28;20064;-76
2021/05/23 04:33:25;;;;;;;1.30;0.43;;;10.20;99.90;;;;;;4994977;28;20473;-76
2021/05/23 04:35:51;;;;;;;0.63;0.60;;;10.20;99.90;;;;;;4996137;28;20023;-76
2021/05/23 04:38:17;;;;;;;1.88;0.60;;;10.10;99.90;;;;;;4995460;28;20026;-74
2021/05/23 04:40:43;;;;;;;0.98;0.60;;;9.80;99.90;;;;;;4995365;28;20034;-75
2021/05/23 04:43:09;;;;;;;4.93;0.60;;;10.00;99.90;;;;;;4995218;28;20378;-75
2021/05/23 04:45:36;;;;;;;3.22;0.32;;;10.00;99.90;;;;;;4995278;28;20464;-73
2021/05/23 04:48:02;;;;;;;0.82;0.60;;;10.10;99.90;;;;;;4993942;28;20042;-74
2021/05/23 04:50:28;;;;;;;0.50;0.50;;;10.10;99.90;;;;;;4994204;28;20121;-74
2021/05/23 04:52:54;;;;;;;1.60;0.40;;;10.00;99.90;;;;;;4995379;28;20392;-75
2021/05/23 04:55:20;;;;;;;1.00;0.50;;;10.10;99.90;;;;;;4993568;28;20035;-74
2021/05/23 04:57:45;;;;;;;2.72;0.65;;;10.20;99.90;;;;;;4994519;28;20492;-74
2021/05/23 05:00:12;;;;;;;0.57;0.47;;;10.30;99.90;;;;;;4994318;28;20109;-73
2021/05/23 05:02:40;;;;;;;1.88;0.43;;;10.30;99.90;;;;;;4994925;28;20031;-75
2021/05/23 05:05:07;;;;;;;1.60;0.47;;;10.20;99.90;;;;;;4994959;28;20027;-75
2021/05/23 05:07:33;;;;;;;0.50;0.43;;;10.10;99.90;;;;;;4994535;28;20070;-74
2021/05/23 05:09:59;;;;;;;1.30;0.63;;;10.10;99.90;;;;;;4992635;28;20496;-77
2021/05/23 05:12:25;;;;;;;2.67;0.50;;;10.30;99.90;;;;;;4995275;28;20034;-75
2021/05/23 05:14:50;;;;;;;2.35;0.80;;;10.30;99.90;;;;;;4993174;28;20057;-75
2021/05/23 05:17:16;;;;;;;1.17;0.35;;;10.40;99.90;;;;;;4977334;28;20069;-76
2021/05/23 05:19:41;;;;;;;2.40;0.70;;;10.50;99.90;;;;;;4994072;28;20031;-76
2021/05/23 05:22:07;;;;;;;1.05;0.47;;;10.50;99.90;;;;;;4994609;28;20030;-76
2021/05/23 05:24:33;;;;;;;0.73;0.55;;;10.40;99.90;;;;;;4994690;28;20030;-75
2021/05/23 05:26:59;;;;;;;1.15;0.40;;;10.50;99.90;;;;;;4994649;28;20068;-75
2021/05/23 05:29:25;;;;;;;1.05;0.30;;;10.50;99.90;;;;;;4993729;28;20481;-75
2021/05/23 05:31:51;;;;;;;0.80;0.38;;;10.50;99.90;;;;;;4994133;28;20018;-76
2021/05/23 05:34:17;;;;;;;3.22;0.45;;;10.70;99.90;;;;;;4976947;28;20511;-74
2021/05/23 05:36:43;;;;;;;0.98;0.50;;;10.80;99.90;;;;;;4994297;28;20101;-74
2021/05/23 05:39:09;;;;;;;2.30;0.50;;;10.90;99.90;;;;;;4994228;28;20093;-72
2021/05/23 05:41:35;;;;;;;1.75;0.40;;;11.20;99.90;;;;;;4993593;28;20502;-74
2021/05/23 05:44:00;;;;;;;1.52;0.38;;;11.00;99.90;;;;;;4992896;28;20030;-74
2021/05/23 05:46:26;;;;;;;0.90;0.30;;;11.00;99.90;;;;;;4993758;28;20493;-74
2021/05/23 05:48:52;;;;;;;2.50;0.55;;;10.80;99.90;;;;;;4994423;28;20030;-75
2021/05/23 05:51:18;;;;;;;1.00;0.77;;;11.10;99.90;;;;;;4993435;28;20023;-74
2021/05/23 05:53:43;;;;;;;1.70;0.50;;;11.10;99.90;;;;;;4994262;28;20026;-73
2021/05/23 05:56:09;;;;;;;3.22;0.68;;;11.30;99.90;;;;;;4994140;28;20040;-73
2021/05/23 05:58:35;;;;;;;1.95;0.60;;;11.20;99.90;;;;;;4993999;28;20057;-75
2021/05/23 06:01:01;;;;;;;0.70;0.52;;;11.20;99.90;;;;;;4993217;28;20023;-77
2021/05/23 06:03:27;;;;;;;0.70;0.70;;;11.00;99.90;;;;;;4994222;28;20034;-76
2021/05/23 06:05:53;;;;;;;1.25;0.50;;;10.70;99.90;;;;;;4992190;28;20030;-75
2021/05/23 06:08:18;;;;;;;0.93;0.55;;;10.50;99.90;;;;;;4994334;28;20030;-74
2021/05/23 06:10:44;;;;;;;1.20;0.52;;;10.40;99.90;;;;;;4995025;28;20038;-73
2021/05/23 06:13:10;;;;;;;0.57;0.40;;;10.40;99.90;;;;;;4995202;28;20113;-73
2021/05/23 06:15:35;;;;;;;0.70;0.30;;;10.30;99.90;;;;;;4992828;28;20045;-73
2021/05/23 06:18:01;;;;;;;0.77;0.35;;;10.40;99.90;;;;;;4993713;28;20030;-72
2021/05/23 06:20:27;;;;;;;0.57;0.30;;;10.50;99.90;;;;;;4992861;28;20034;-73
2021/05/23 06:22:53;;;;;;;0.40;0.40;;;10.50;99.90;;;;;;4993520;28;20103;-74
2021/05/23 06:25:18;;;;;;;0.80;0.50;;;10.30;99.90;;;;;;4993417;28;20413;-74
2021/05/23 06:27:44;;;;;;;0.28;0.28;;;10.30;99.90;;;;;;4986288;28;20027;-74
2021/05/23 06:30:10;;;;;;;2.58;0.40;;;10.40;99.90;;;;;;4957043;28;20026;-74
2021/05/23 06:32:36;;;;;;;0.95;0.47;;;10.40;99.90;;;;;;4974850;28;20397;-75
2021/05/23 06:35:03;;;;;;;2.55;0.40;;;10.60;99.90;;;;;;4976176;28;20034;-72
2021/05/23 06:37:28;;;;;;;5.30;0.40;;;10.50;99.90;;;;;;4985937;28;20029;-74
2021/05/23 06:39:54;;;;;;;1.00;0.43;;;10.60;99.90;;;;;;4970665;28;20398;-70
2021/05/23 06:42:20;;;;;;;0.30;0.30;;;10.40;99.90;;;;;;4969964;28;20023;-73
2021/05/23 06:44:45;;;;;;;1.75;0.45;;;10.40;99.90;;;;;;4983406;28;20153;-71
2021/05/23 06:47:11;;;;;;;1.40;0.30;;;10.40;99.90;;;;;;4989334;28;20030;-72
2021/05/23 06:49:37;;;;;;;0.55;0.40;;;10.70;99.90;;;;;;4989759;28;20493;-74
2021/05/23 06:52:03;;;;;;;1.10;0.50;;;11.00;99.90;;;;;;4989184;28;20041;-74
2021/05/23 06:54:29;;;;;;;0.93;0.32;;;11.20;99.90;;;;;;4988745;28;20035;-74
2021/05/23 06:56:55;;;;;;;1.60;0.73;;;11.30;99.90;;;;;;4992448;28;20104;-72
2021/05/23 06:59:23;;;;;;;1.60;0.50;;;11.10;99.90;;;;;;4996161;28;20034;-72
2021/05/23 07:01:50;;;;;;;0.50;0.43;;;10.80;99.90;;;;;;4995716;28;20033;-71
2021/05/23 07:04:15;;;;;;;1.23;0.25;;;10.70;99.90;;;;;;4994022;28;20030;-74
2021/05/23 07:06:41;;;;;;;0.40;0.30;;;10.40;99.90;;;;;;4995278;28;20152;-72
2021/05/23 07:09:07;;;;;;;0.50;0.40;;;10.60;99.90;;;;;;4975572;28;20782;-71
2021/05/23 07:11:32;;;;;;;2.03;0.43;;;11.00;99.90;;;;;;4977531;28;20035;-70
2021/05/23 07:13:58;;;;;;;1.92;0.80;;;10.90;99.90;;;;;;4995047;28;20042;-72
2021/05/23 07:16:24;;;;;;;1.50;0.40;;;11.10;99.90;;;;;;4992920;28;20149;-70
2021/05/23 07:18:49;;;;;;;2.03;0.30;;;11.80;99.90;;;;;;4989523;28;20154;-70
2021/05/23 07:21:15;;;;;;;0.50;0.30;;;11.90;99.90;;;;;;4988415;28;20134;-72
2021/05/23 07:23:41;;;;;;;0.95;0.40;;;12.40;99.90;;;;;;4991331;28;20431;-73
2021/05/23 07:26:06;;;;;;;0.63;0.40;;;12.90;99.90;;;;;;4971151;28;20046;-73
2021/05/23 07:28:33;;;;;;;0.50;0.30;;;12.80;99.90;;;;;;4994523;28;20069;-74
2021/05/23 07:31:00;;;;;;;0.30;0.30;;;12.90;99.90;;;;;;4952248;28;20027;-73
2021/05/23 07:33:26;;;;;;;0.17;0.17;;;12.60;99.90;;;;;;4970496;28;20038;-73
2021/05/23 07:35:52;;;;;;;0.40;0.40;;;12.50;99.90;;;;;;4955668;28;20674;-72
2021/05/23 07:38:18;;;;;;;0.43;0.30;;;12.30;99.90;;;;;;4971060;28;20042;-73
2021/05/23 07:40:44;;;;;;;0.40;0.40;;;11.90;99.90;;;;;;4969202;28;20035;-71
2021/05/23 07:43:10;;;;;;;0.60;0.30;;;11.60;99.90;;;;;;4951530;28;20046;-72
2021/05/23 07:45:36;;;;;;;2.40;0.30;;;12.00;99.90;;;;;;4969798;28;20038;-72
2021/05/23 07:48:01;;;;;;;0.38;0.30;;;12.50;99.90;;;;;;4968556;28;20043;-72
2021/05/23 07:50:27;;;;;;;0.77;0.35;;;12.70;99.90;;;;;;4968782;28;20404;-73
2021/05/23 07:52:53;;;;;;;1.50;0.30;;;12.60;99.90;;;;;;4969193;28;20053;-73
2021/05/23 07:55:19;;;;;;;2.58;0.40;;;12.80;99.90;;;;;;4978242;28;20039;-73
2021/05/23 07:57:46;;;;;;;0.52;0.40;;;13.00;99.90;;;;;;4971461;28;20512;-73
2021/05/23 08:00:13;;;;;;;2.88;0.50;;;13.30;99.90;;;;;;4987477;28;20517;-73
2021/05/23 08:02:39;;;;;;;2.75;0.40;;;13.10;99.90;;;;;;4988927;28;20045;-73
2021/05/23 08:05:06;;;;;;;0.40;0.40;;;12.60;99.90;;;;;;4988071;28;20105;-74
2021/05/23 08:07:32;;;;;;;0.90;0.30;;;12.90;99.90;;;;;;4989303;28;20034;-73
2021/05/23 08:09:58;;;;;;;1.38;0.73;;;12.80;99.90;;;;;;4991747;28;20052;-73
2021/05/23 08:12:23;;;;;;;2.47;0.60;;;13.10;99.90;;;;;;4975200;28;20089;-73
2021/05/23 08:14:49;;;;;;;0.70;0.40;;;13.40;99.90;;;;;;4993082;28;20066;-75
2021/05/23 08:17:15;;;;;;;1.17;0.60;;;13.60;99.90;;;;;;4992623;28;20442;-73
2021/05/23 08:19:41;;;;;;;12.60;1.83;;;13.90;99.90;;;;;;4994314;28;20129;-75
2021/05/23 08:22:06;;;;;;;2.97;0.73;;;13.60;99.90;;;;;;4975669;28;20104;-75
2021/05/23 08:24:33;;;;;;;1.67;0.40;;;13.50;99.90;;;;;;4976269;28;20057;-74
2021/05/23 08:27:01;;;;;;;0.93;0.50;;;12.80;99.90;;;;;;4977540;28;20058;-73
2021/05/23 08:29:30;;;;;;;1.55;0.45;;;13.10;99.90;;;;;;4993771;28;20554;-73
2021/05/23 08:31:57;;;;;;;3.17;0.75;;;13.50;99.90;;;;;;4993847;28;20121;-74
2021/05/23 08:34:23;;;;;;;1.83;0.40;;;14.10;99.90;;;;;;4992147;28;20085;-72
2021/05/23 08:36:49;;;;;;;1.65;0.65;;;14.70;99.90;;;;;;4992798;28;20042;-74
2021/05/23 08:39:15;;;;;;;3.05;1.00;;;14.70;99.90;;;;;;4992341;28;20073;-74
2021/05/23 08:41:41;;;;;;;3.00;0.47;;;14.40;99.90;;;;;;4997345;28;20034;-71
2021/05/23 08:44:06;;;;;;;3.33;0.55;;;15.20;99.90;;;;;;5011491;28;20040;-71
2021/05/23 08:46:33;;;;;;;2.08;0.63;;;16.20;99.90;;;;;;5011679;28;20084;-73
2021/05/23 08:49:02;;;;;;;2.90;0.50;;;15.40;99.90;;;;;;5003189;28;20505;-72
2021/05/23 08:51:28;;;;;;;3.38;0.70;;;15.30;99.90;;;;;;4970942;28;20042;-75
2021/05/23 08:53:54;;;;;;;0.45;0.45;;;14.40;99.90;;;;;;4992811;28;20034;-73
2021/05/23 08:56:20;;;;;;;2.97;0.70;;;13.70;99.90;;;;;;4991606;28;20034;-74
2021/05/23 08:58:46;;;;;;;0.82;0.47;;;13.70;99.90;;;;;;4992281;28;20117;-73
2021/05/23 09:01:27;;;;;;;5.07;0.65;;;14.20;99.90;;;;;;4976252;28;20058;-72
2021/05/23 09:04:13;;;;;;;2.60;0.40;;;13.90;99.90;;;;;;4975511;28;20060;-72
2021/05/23 09:06:40;;;;;;;2.03;0.70;;;14.90;99.90;;;;;;4973558;28;20035;-73
2021/05/23 09:09:09;;;;;;;3.17;0.60;;;15.70;99.90;;;;;;4956426;28;20049;-71
2021/05/23 09:11:36;;;;;;;1.25;0.50;;;15.00;99.90;;;;;;4985024;28;20047;-73
2021/05/23 09:14:04;;;;;;;5.30;0.90;;;15.00;99.90;;;;;;4972195;28;20058;-72
2021/05/23 09:16:40;;;;;;;2.60;0.70;;;15.00;99.90;;;;;;4974814;28;20393;-74
2021/05/23 09:19:06;;;;;;;0.82;0.43;;;15.00;99.90;;;;;;4992760;28;20053;-73
2021/05/23 09:21:35;;;;;;;1.52;0.50;;;14.00;99.90;;;;;;4994081;28;20026;-72
2021/05/23 09:24:09;;;;;;;2.40;0.30;;;13.60;99.90;;;;;;5011579;28;20038;-73
2021/05/23 09:26:46;;;;;;;1.85;0.32;;;13.30;99.90;;;;;;5011126;28;20114;-71
2021/05/23 09:29:22;;;;;;;1.45;0.68;;;12.90;99.90;;;;;;4986275;28;20092;-72
2021/05/23 09:32:07;;;;;;;3.17;0.40;;;13.00;99.90;;;;;;4973463;28;20037;-73
2021/05/23 09:34:32;;;;;;;0.68;0.38;;;13.10;99.90;;;;;;4972169;28;20506;-72
2021/05/23 09:36:59;;;;;;;0.50;0.30;;;13.80;99.90;;;;;;4973543;28;20038;-72
2021/05/23 09:39:35;;;;;;;1.38;0.50;;;14.90;99.90;;;;;;4989040;28;20094;-73
2021/05/23 09:42:06;;;;;;;1.35;0.40;;;14.70;99.90;;;;;;4972590;28;20046;-74
2021/05/23 09:44:33;;;;;;;1.33;0.40;;;15.10;99.90;;;;;;4991906;28;20054;-72
2021/05/23 09:47:09;;;;;;;3.08;0.50;;;15.70;99.90;;;;;;4990893;28;20038;-72
2021/05/23 09:49:41;;;;;;;2.40;0.30;;;16.50;99.90;;;;;;4988913;28;20409;-74
2021/05/23 09:52:09;;;;;;;0.70;0.40;;;16.80;99.90;;;;;;4991556;28;20066;-75
2021/05/23 09:54:46;;;;;;;2.90;0.50;;;17.10;99.90;;;;;;4989391;28;20557;-73
2021/05/23 09:57:23;;;;;;;1.27;0.55;;;15.80;99.90;;;;;;4990064;28;20038;-70
2021/05/23 10:00:07;;;;;;;4.57;0.85;;;15.70;99.90;;;;;;4989066;28;20035;-74
2021/05/23 10:02:33;;;;;;;1.95;0.50;;;14.90;99.90;;;;;;4973151;28;20030;-72
2021/05/23 10:05:05;;;;;;;4.32;0.57;;;15.20;99.90;;;;;;4970418;28;20130;-75
2021/05/23 10:07:33;;;;;;;4.50;0.60;;;16.40;99.90;;;;;;4989946;28;20493;-72
2021/05/23 10:09:59;;;;;;;1.88;0.40;;;16.80;99.90;;;;;;4986388;28;20048;-74
2021/05/23 10:12:25;;;;;;;1.35;0.50;;;17.50;99.90;;;;;;4987727;28;20034;-71
2021/05/23 10:14:51;;;;;;;1.13;0.85;;;17.80;99.90;;;;;;4989419;28;20477;-74
2021/05/23 10:17:17;;;;;;;2.08;0.40;;;17.30;99.90;;;;;;4989583;28;20130;-72
2021/05/23 10:19:45;;;;;;;1.08;0.50;;;17.20;99.90;;;;;;4987893;28;20038;-71
2021/05/23 10:22:12;;;;;;;2.45;0.50;;;17.70;99.90;;;;;;4987466;28;20096;-71
2021/05/23 10:24:50;;;;;;;1.00;0.40;;;17.50;99.00;;;;;;4971758;28;20121;-75
2021/05/23 10:27:24;;;;;;;3.20;0.70;;;16.10;99.90;;;;;;4989077;28;20050;-72
2021/05/23 10:29:53;;;;;;;1.10;0.30;;;16.10;98.80;;;;;;4970926;28;20046;-71
2021/05/23 10:32:27;;;;;;;1.05;0.60;;;17.00;99.80;;;;;;4988676;28;20393;-73
2021/05/23 10:34:55;;;;;;;3.08;1.05;;;17.60;98.30;;;;;;4989718;28;20038;-74
2021/05/23 10:37:29;;;;;;;2.00;0.60;;;16.90;98.40;;;;;;4987201;28;20038;-74
2021/05/23 10:39:55;;;;;;;2.50;0.45;;;17.60;98.90;;;;;;4989025;28;20044;-73
2021/05/23 10:42:31;;;;;;;1.38;0.45;;;18.10;95.70;;;;;;4988967;28;20992;-72
2021/05/23 10:44:58;;;;;;;1.27;0.32;;;17.20;97.60;;;;;;4987675;28;20045;-72
2021/05/23 10:47:28;;;;;;;0.75;0.40;;;17.00;96.90;;;;;;4988372;28;20030;-72
2021/05/23 10:50:07;;;;;;;1.55;1.02;;;16.70;98.20;;;;;;4987934;28;20042;-73
2021/05/23 10:52:35;;;;;;;2.53;0.40;;;16.50;99.90;;;;;;4987831;28;20556;-74
2021/05/23 10:55:11;;;;;;;0.98;0.52;;;16.40;99.90;;;;;;4987777;28;20042;-74
2021/05/23 10:57:46;;;;;;;5.65;0.50;;;16.30;99.90;;;;;;4970734;28;20141;-72
2021/05/23 11:00:35;;;;;;;1.17;0.73;;;16.10;99.90;;;;;;4987687;28;20038;-73
2021/05/23 11:03:13;;;;;;;3.30;0.60;;;16.10;99.90;;;;;;4987420;28;20122;-72
2021/05/23 11:05:39;;;;;;;1.25;0.50;;;15.30;99.90;;;;;;4987425;28;20034;-73
2021/05/23 11:08:07;;;;;;;41.22;18.65;;;15.20;99.90;;;;;;4987062;28;20042;-74
2021/05/23 11:10:50;;;;;;;5.63;2.45;;;15.50;99.90;;;;;;4987152;28;20041;-76
2021/05/23 11:13:30;;;;;;;6.35;3.95;;;16.60;99.90;;;;;;4987618;28;20405;-74
2021/05/23 11:16:07;;;;;;;9.35;2.22;;;17.00;99.90;;;;;;4987125;28;20030;-73
2021/05/23 11:18:32;;;;;;;3.42;2.03;;;17.40;99.90;;;;;;4988223;28;20034;-73
2021/05/23 11:21:08;;;;;;;5.10;2.45;;;17.80;99.90;;;;;;4986935;28;20057;-76
2021/05/23 11:23:44;;;;;;;10.90;2.88;;;17.60;99.90;;;;;;4987918;28;20053;-73
2021/05/23 11:26:15;;;;;;;2.40;0.47;;;17.70;99.90;;;;;;4971496;28;20489;-75
2021/05/23 11:28:52;;;;;;;0.32;0.25;;;18.10;99.90;;;;;;4989870;28;20034;-74
2021/05/23 11:31:29;;;;;;;0.20;0.20;;;17.40;99.40;;;;;;4992894;28;20509;-74
2021/05/23 11:33:55;;;;;;;0.82;0.30;;;16.00;99.90;;;;;;4993276;28;20057;-75
2021/05/23 11:36:23;;;;;;;1.15;0.30;;;15.80;99.90;;;;;;4992741;28;20149;-76
2021/05/23 11:38:49;;;;;;;0.63;0.30;;;16.10;99.90;;;;;;4992377;28;20109;-75
2021/05/23 11:41:40;;;;;;;1.35;0.52;;;16.30;99.90;;;;;;4975388;28;20088;-75
2021/05/23 11:44:08;;;;;;;2.30;0.30;;;16.90;99.90;;;;;;4996638;28;20057;-77
2021/05/23 11:46:34;;;;;;;0.25;0.20;;;17.50;99.80;;;;;;4998107;28;20031;-72
2021/05/23 11:49:00;;;;;;;0.90;0.25;;;18.10;99.00;;;;;;5013386;28;20038;-73
2021/05/23 11:51:29;;;;;;;0.73;0.20;;;19.50;97.10;;;;;;5007420;28;20023;-73
2021/05/23 11:53:56;;;;;;;0.70;0.30;;;19.90;95.10;;;;;;4985303;28;20025;-74
2021/05/23 11:56:33;;;;;;;4.30;0.50;;;20.80;94.80;;;;;;4979147;28;20018;-72
2021/05/23 11:59:01;;;;;;;0.93;0.40;;;21.00;92.60;;;;;;4979159;28;20366;-75
2021/05/23 12:01:31;;;;;;;0.45;0.35;;;20.40;93.20;;;;;;4996648;28;20026;-76
2021/05/23 12:04:05;;;;;;;4.03;0.50;;;19.60;93.00;;;;;;4997764;28;20032;-77
2021/05/23 12:06:36;;;;;;;0.45;0.28;;;19.80;91.90;;;;;;4998169;28;20034;-73
2021/05/23 12:09:31;;;;;;;1.70;0.22;;;21.30;91.30;;;;;;4978613;28;20038;-73
2021/05/23 12:12:02;;;;;;;1.55;0.40;;;22.00;86.50;;;;;;4989363;28;20038;-73
2021/05/23 12:14:37;;;;;;;0.70;0.35;;;23.70;80.30;;;;;;4995277;28;20025;-72
2021/05/23 12:17:06;;;;;;;2.80;0.95;;;23.90;79.30;;;;;;4996024;28;20660;-72
2021/05/23 12:19:56;;;;;;;2.55;0.60;;;22.50;80.90;;;;;;4995852;28;20081;-77
2021/05/23 12:22:30;;;;;;;0.70;0.50;;;21.40;75.00;;;;;;4987121;28;20070;-74
2021/05/23 12:25:03;;;;;;;3.65;0.50;;;20.70;78.70;;;;;;4996027;28;20026;-75
2021/05/23 12:27:41;;;;;;;1.33;0.50;;;20.50;83.30;;;;;;4996378;28;20102;-74
2021/05/23 12:30:14;;;;;;;2.38;1.08;;;20.70;82.50;;;;;;4987642;28;20037;-76
2021/05/23 12:32:40;;;;;;;1.50;0.47;;;19.90;83.70;;;;;;4976685;28;20062;-76
2021/05/23 12:35:39;;;;;;;4.43;0.63;;;18.80;88.80;;;;;;4976762;28;20049;-74
2021/05/23 12:38:06;;;;;;;1.38;0.40;;;18.40;89.30;;;;;;4939426;28;20034;-76
2021/05/23 12:40:41;;;;;;;1.83;0.47;;;18.60;89.20;;;;;;4987827;28;20493;-74
2021/05/23 12:43:31;;;;;;;1.60;0.40;;;18.10;89.60;;;;;;4989049;28;20369;-75
2021/05/23 12:46:09;;;;;;;5.43;0.80;;;17.30;90.80;;;;;;4974434;28;20043;-74
2021/05/23 12:48:39;;;;;;;2.13;0.55;;;17.30;91.50;;;;;;4958187;28;20416;-76
2021/05/23 12:51:17;;;;;;;2.50;0.70;;;17.70;91.40;;;;;;4982586;28;20685;-77
2021/05/23 12:53:55;;;;;;;0.60;0.50;;;17.60;90.20;;;;;;4977653;28;20074;-76
2021/05/23 12:56:23;;;;;;;4.22;0.95;;;18.80;89.30;;;;;;4987230;28;20018;-78